JOK10L ENKR-ENTC
Flight info
| Callsign | JOK10L |
|---|---|
| Flight time | 0h 43m |
| Altitude | 32000 |
| Route | VADLA DCT TINOS DCT KIIKA |
| Aircraft | CRJ9/M-SDFGIRWY/S |
Departure
| Time | 2026-05-04 20:03 |
|---|---|
| Airport | Kirkenes Airport, Høybuktmoen (ENKR) |
Arrival
| Time | 2026-05-04 20:46 |
|---|---|
| Airport | Tromsø Airport (ENTC) |
| Time | Latitude | Longitude | Altitude | Speed | Heading |
|---|---|---|---|---|---|
| 2026-05-04 19:30 | 69.72207 | 29.88345 | 294 ft | 0 kts | 159° |
| 2026-05-04 19:56 | 69.72212 | 29.88340 | 293 ft | 3 kts | 159° |
| 2026-05-04 19:56 | 69.72225 | 29.88326 | 296 ft | 3 kts | 159° |
| 2026-05-04 19:56 | 69.72244 | 29.88310 | 295 ft | 3 kts | 188° |
| 2026-05-04 19:57 | 69.72257 | 29.88323 | 295 ft | 0 kts | 217° |
| 2026-05-04 19:58 | 69.72258 | 29.88323 | 295 ft | 0 kts | 217° |
| 2026-05-04 19:58 | 69.72255 | 29.88317 | 295 ft | 4 kts | 225° |
| 2026-05-04 19:59 | 69.72272 | 29.88089 | 294 ft | 21 kts | 317° |
| 2026-05-04 19:59 | 69.72408 | 29.88079 | 294 ft | 19 kts | 60° |
| 2026-05-04 19:59 | 69.72459 | 29.88416 | 292 ft | 19 kts | 69° |
| 2026-05-04 19:59 | 69.72505 | 29.88751 | 295 ft | 17 kts | 69° |
| 2026-05-04 20:00 | 69.72574 | 29.89288 | 297 ft | 42 kts | 69° |
| 2026-05-04 20:00 | 69.72673 | 29.90085 | 293 ft | 41 kts | 70° |
| 2026-05-04 20:00 | 69.72768 | 29.90823 | 294 ft | 38 kts | 69° |
| 2026-05-04 20:00 | 69.72861 | 29.91532 | 296 ft | 35 kts | 69° |
| 2026-05-04 20:01 | 69.72928 | 29.92039 | 297 ft | 12 kts | 50° |
| 2026-05-04 20:01 | 69.72947 | 29.92038 | 299 ft | 1 kts | 304° |
| 2026-05-04 20:01 | 69.72947 | 29.91998 | 294 ft | 0 kts | 251° |
| 2026-05-04 20:01 | 69.72944 | 29.91975 | 294 ft | 0 kts | 249° |
| 2026-05-04 20:02 | 69.72942 | 29.91958 | 296 ft | 8 kts | 249° |
| 2026-05-04 20:02 | 69.72844 | 29.91225 | 293 ft | 74 kts | 249° |
| 2026-05-04 20:02 | 69.72575 | 29.89190 | 297 ft | 134 kts | 249° |
| 2026-05-04 20:03 | 69.72201 | 29.86342 | 412 ft | 164 kts | 250° |
| 2026-05-04 20:03 | 69.71798 | 29.83207 | 947 ft | 164 kts | 251° |
| 2026-05-04 20:03 | 69.71437 | 29.79951 | 1450 ft | 188 kts | 253° |
| 2026-05-04 20:03 | 69.71065 | 29.75982 | 1881 ft | 212 kts | 256° |
| 2026-05-04 20:04 | 69.70776 | 29.71911 | 2944 ft | 205 kts | 260° |
| 2026-05-04 20:04 | 69.70694 | 29.67753 | 3744 ft | 209 kts | 270° |
| 2026-05-04 20:04 | 69.70747 | 29.63579 | 4588 ft | 208 kts | 272° |
| 2026-05-04 20:04 | 69.70838 | 29.59409 | 5344 ft | 210 kts | 273° |
| 2026-05-04 20:05 | 69.70996 | 29.55209 | 6083 ft | 213 kts | 283° |
| 2026-05-04 20:05 | 69.71770 | 29.51595 | 6736 ft | 219 kts | 321° |
| 2026-05-04 20:05 | 69.73193 | 29.50026 | 7372 ft | 225 kts | 359° |
| 2026-05-04 20:05 | 69.74799 | 29.50498 | 8044 ft | 228 kts | 9° |
| 2026-05-04 20:06 | 69.76367 | 29.51334 | 8700 ft | 231 kts | 11° |
| 2026-05-04 20:06 | 69.77949 | 29.52324 | 9292 ft | 238 kts | 12° |
| 2026-05-04 20:06 | 69.79638 | 29.53469 | 9499 ft | 261 kts | 13° |
| 2026-05-04 20:06 | 69.81499 | 29.54582 | 9575 ft | 286 kts | 2° |
| 2026-05-04 20:07 | 69.83530 | 29.53727 | 9612 ft | 308 kts | 337° |
| 2026-05-04 20:07 | 69.85367 | 29.50285 | 9857 ft | 318 kts | 311° |
| 2026-05-04 20:07 | 69.86571 | 29.45052 | 10672 ft | 312 kts | 289° |
| 2026-05-04 20:07 | 69.87049 | 29.38912 | 11351 ft | 312 kts | 276° |
| 2026-05-04 20:08 | 69.87292 | 29.32641 | 12005 ft | 315 kts | 274° |
| 2026-05-04 20:08 | 69.87483 | 29.26279 | 12664 ft | 318 kts | 273° |
| 2026-05-04 20:08 | 69.87644 | 29.19842 | 13319 ft | 321 kts | 272° |
| 2026-05-04 20:08 | 69.87793 | 29.13172 | 13931 ft | 323 kts | 272° |
| 2026-05-04 20:09 | 69.87936 | 29.06308 | 14550 ft | 326 kts | 272° |
| 2026-05-04 20:09 | 69.88059 | 29.00139 | 15093 ft | 328 kts | 272° |
| 2026-05-04 20:09 | 69.88189 | 28.93496 | 15651 ft | 331 kts | 272° |
| 2026-05-04 20:09 | 69.88316 | 28.86797 | 16220 ft | 334 kts | 272° |
| 2026-05-04 20:10 | 69.88440 | 28.80042 | 16776 ft | 336 kts | 272° |
| 2026-05-04 20:10 | 69.88564 | 28.73241 | 17312 ft | 339 kts | 272° |
| 2026-05-04 20:10 | 69.88686 | 28.66381 | 17829 ft | 341 kts | 272° |
| 2026-05-04 20:10 | 69.88809 | 28.59471 | 18292 ft | 343 kts | 271° |
| 2026-05-04 20:11 | 69.88937 | 28.52487 | 18750 ft | 345 kts | 271° |
| 2026-05-04 20:11 | 69.89066 | 28.45532 | 19192 ft | 347 kts | 271° |
| 2026-05-04 20:11 | 69.89195 | 28.38506 | 19633 ft | 349 kts | 271° |
| 2026-05-04 20:11 | 69.89326 | 28.31445 | 20059 ft | 351 kts | 271° |
| 2026-05-04 20:12 | 69.89460 | 28.24233 | 20471 ft | 354 kts | 271° |
| 2026-05-04 20:12 | 69.89592 | 28.17142 | 20876 ft | 355 kts | 271° |
| 2026-05-04 20:12 | 69.89725 | 28.09892 | 21283 ft | 357 kts | 271° |
| 2026-05-04 20:12 | 69.89813 | 28.05106 | 21531 ft | 359 kts | 271° |
| 2026-05-04 20:13 | 69.89987 | 27.95377 | 22030 ft | 362 kts | 271° |
| 2026-05-04 20:13 | 69.90116 | 27.88056 | 22386 ft | 364 kts | 271° |
| 2026-05-04 20:13 | 69.90242 | 27.80688 | 22739 ft | 366 kts | 271° |
| 2026-05-04 20:13 | 69.90366 | 27.73280 | 23097 ft | 368 kts | 271° |
| 2026-05-04 20:14 | 69.90488 | 27.65819 | 23366 ft | 370 kts | 271° |
| 2026-05-04 20:14 | 69.90607 | 27.58341 | 23631 ft | 372 kts | 271° |
| 2026-05-04 20:14 | 69.90724 | 27.50801 | 23900 ft | 374 kts | 271° |
| 2026-05-04 20:14 | 69.90838 | 27.43226 | 24159 ft | 376 kts | 271° |
| 2026-05-04 20:15 | 69.90950 | 27.35608 | 24431 ft | 378 kts | 271° |
| 2026-05-04 20:15 | 69.91061 | 27.27947 | 24688 ft | 380 kts | 271° |
| 2026-05-04 20:15 | 69.91132 | 27.22855 | 24860 ft | 381 kts | 271° |
| 2026-05-04 20:15 | 69.91244 | 27.14810 | 25126 ft | 384 kts | 271° |
| 2026-05-04 20:16 | 69.91348 | 27.07036 | 25380 ft | 386 kts | 271° |
| 2026-05-04 20:16 | 69.91452 | 26.99208 | 25629 ft | 388 kts | 270° |
| 2026-05-04 20:16 | 69.91554 | 26.91356 | 25879 ft | 390 kts | 270° |
| 2026-05-04 20:16 | 69.91655 | 26.83451 | 26121 ft | 392 kts | 270° |
| 2026-05-04 20:17 | 69.91753 | 26.75517 | 26365 ft | 394 kts | 270° |
| 2026-05-04 20:17 | 69.91850 | 26.67421 | 26609 ft | 396 kts | 270° |
| 2026-05-04 20:17 | 69.91942 | 26.59393 | 26852 ft | 398 kts | 270° |
| 2026-05-04 20:17 | 69.92034 | 26.51323 | 27081 ft | 400 kts | 270° |
| 2026-05-04 20:18 | 69.92124 | 26.43219 | 27323 ft | 402 kts | 270° |
| 2026-05-04 20:18 | 69.92213 | 26.35075 | 27547 ft | 404 kts | 270° |
| 2026-05-04 20:18 | 69.92299 | 26.26873 | 27777 ft | 406 kts | 270° |
| 2026-05-04 20:18 | 69.92383 | 26.18661 | 28008 ft | 408 kts | 270° |
| 2026-05-04 20:19 | 69.92464 | 26.10389 | 28230 ft | 410 kts | 270° |
| 2026-05-04 20:19 | 69.92543 | 26.02080 | 28446 ft | 412 kts | 270° |
| 2026-05-04 20:19 | 69.92619 | 25.93732 | 28675 ft | 413 kts | 270° |
| 2026-05-04 20:19 | 69.92694 | 25.85347 | 28870 ft | 415 kts | 270° |
| 2026-05-04 20:20 | 69.92767 | 25.76925 | 29090 ft | 417 kts | 270° |
| 2026-05-04 20:20 | 69.92837 | 25.68456 | 29291 ft | 419 kts | 270° |
| 2026-05-04 20:20 | 69.92904 | 25.59965 | 29503 ft | 421 kts | 270° |
| 2026-05-04 20:20 | 69.92968 | 25.51541 | 29686 ft | 423 kts | 270° |
| 2026-05-04 20:21 | 69.93031 | 25.42847 | 29845 ft | 425 kts | 270° |
| 2026-05-04 20:21 | 69.93090 | 25.34242 | 30006 ft | 426 kts | 270° |
| 2026-05-04 20:21 | 69.93200 | 25.16912 | 30320 ft | 430 kts | 269° |
| 2026-05-04 20:22 | 69.93253 | 25.08193 | 30457 ft | 432 kts | 269° |
| 2026-05-04 20:22 | 69.93302 | 24.99446 | 30610 ft | 433 kts | 269° |
| 2026-05-04 20:22 | 69.93346 | 24.90779 | 30756 ft | 435 kts | 269° |
| 2026-05-04 20:22 | 69.93391 | 24.81737 | 30906 ft | 436 kts | 269° |
| 2026-05-04 20:23 | 69.93430 | 24.73199 | 31049 ft | 438 kts | 269° |
| 2026-05-04 20:23 | 69.93470 | 24.63624 | 31202 ft | 440 kts | 269° |
| 2026-05-04 20:23 | 69.93536 | 24.45700 | 31434 ft | 444 kts | 269° |
| 2026-05-04 20:24 | 69.93587 | 24.27588 | 31551 ft | 451 kts | 269° |
| 2026-05-04 20:24 | 69.93616 | 24.08662 | 31562 ft | 459 kts | 267° |
| 2026-05-04 20:25 | 69.92948 | 23.89796 | 31570 ft | 466 kts | 260° |
| 2026-05-04 20:25 | 69.91881 | 23.70928 | 31548 ft | 470 kts | 260° |
| 2026-05-04 20:26 | 69.90865 | 23.51996 | 31529 ft | 471 kts | 260° |
| 2026-05-04 20:26 | 69.89810 | 23.32912 | 31507 ft | 472 kts | 260° |
| 2026-05-04 20:27 | 69.89457 | 23.26572 | 31667 ft | 463 kts | 260° |
| 2026-05-04 20:27 | 69.88940 | 23.17402 | 31294 ft | 461 kts | 259° |
| 2026-05-04 20:27 | 69.88415 | 23.08175 | 30677 ft | 463 kts | 259° |
| 2026-05-04 20:27 | 69.87873 | 22.98784 | 30127 ft | 463 kts | 259° |
| 2026-05-04 20:28 | 69.87336 | 22.89532 | 29577 ft | 461 kts | 259° |
| 2026-05-04 20:28 | 69.86797 | 22.80376 | 28910 ft | 459 kts | 259° |
| 2026-05-04 20:28 | 69.86259 | 22.71265 | 28253 ft | 457 kts | 259° |
| 2026-05-04 20:28 | 69.85715 | 22.62199 | 27609 ft | 455 kts | 259° |
| 2026-05-04 20:29 | 69.85171 | 22.53170 | 26978 ft | 453 kts | 259° |
| 2026-05-04 20:29 | 69.84617 | 22.44074 | 26357 ft | 450 kts | 259° |
| 2026-05-04 20:29 | 69.84076 | 22.35283 | 25760 ft | 448 kts | 258° |
| 2026-05-04 20:29 | 69.83522 | 22.26304 | 25166 ft | 446 kts | 258° |
| 2026-05-04 20:30 | 69.82964 | 22.17378 | 24584 ft | 444 kts | 258° |
| 2026-05-04 20:30 | 69.82404 | 22.08480 | 24012 ft | 442 kts | 258° |
| 2026-05-04 20:30 | 69.81855 | 21.99865 | 23461 ft | 440 kts | 258° |
| 2026-05-04 20:30 | 69.81290 | 21.91061 | 22859 ft | 438 kts | 258° |
| 2026-05-04 20:31 | 69.80732 | 21.82413 | 22182 ft | 436 kts | 258° |
| 2026-05-04 20:31 | 69.80180 | 21.73908 | 21546 ft | 435 kts | 258° |
| 2026-05-04 20:31 | 69.79633 | 21.65572 | 20929 ft | 434 kts | 258° |
| 2026-05-04 20:31 | 69.79047 | 21.56743 | 20270 ft | 421 kts | 257° |
| 2026-05-04 20:32 | 69.78508 | 21.48575 | 19662 ft | 408 kts | 257° |
| 2026-05-04 20:32 | 69.77976 | 21.40645 | 19039 ft | 397 kts | 257° |
| 2026-05-04 20:32 | 69.77454 | 21.32910 | 18454 ft | 388 kts | 257° |
| 2026-05-04 20:32 | 69.76701 | 21.25539 | 17860 ft | 378 kts | 247° |
| 2026-05-04 20:33 | 69.75711 | 21.18594 | 17202 ft | 371 kts | 245° |
| 2026-05-04 20:33 | 69.74720 | 21.11782 | 16567 ft | 366 kts | 246° |
| 2026-05-04 20:33 | 69.73793 | 21.05087 | 15934 ft | 361 kts | 248° |
| 2026-05-04 20:33 | 69.72909 | 20.98273 | 15303 ft | 357 kts | 248° |
| 2026-05-04 20:34 | 69.72051 | 20.91616 | 14683 ft | 352 kts | 248° |
| 2026-05-04 20:34 | 69.71193 | 20.85039 | 14086 ft | 349 kts | 248° |
| 2026-05-04 20:34 | 69.70343 | 20.78523 | 13504 ft | 346 kts | 248° |
| 2026-05-04 20:34 | 69.69476 | 20.71944 | 12865 ft | 343 kts | 248° |
| 2026-05-04 20:35 | 69.68637 | 20.65545 | 12230 ft | 339 kts | 248° |
| 2026-05-04 20:35 | 69.67834 | 20.59449 | 11830 ft | 331 kts | 248° |
| 2026-05-04 20:35 | 69.67006 | 20.53199 | 11355 ft | 325 kts | 248° |
| 2026-05-04 20:35 | 69.66199 | 20.47185 | 10885 ft | 320 kts | 248° |
| 2026-05-04 20:36 | 69.65412 | 20.41274 | 10432 ft | 316 kts | 248° |
| 2026-05-04 20:36 | 69.64625 | 20.35404 | 9987 ft | 311 kts | 247° |
| 2026-05-04 20:36 | 69.63849 | 20.29643 | 9549 ft | 307 kts | 248° |
| 2026-05-04 20:36 | 69.63071 | 20.23875 | 9072 ft | 304 kts | 247° |
| 2026-05-04 20:37 | 69.62310 | 20.18250 | 8611 ft | 301 kts | 247° |
| 2026-05-04 20:37 | 69.61551 | 20.12665 | 8165 ft | 298 kts | 247° |
| 2026-05-04 20:37 | 69.60804 | 20.07168 | 7729 ft | 295 kts | 247° |
| 2026-05-04 20:37 | 69.60063 | 20.01718 | 7264 ft | 292 kts | 247° |
| 2026-05-04 20:38 | 69.59326 | 19.96328 | 6820 ft | 289 kts | 247° |
| 2026-05-04 20:38 | 69.58591 | 19.90991 | 6375 ft | 286 kts | 247° |
| 2026-05-04 20:38 | 69.57862 | 19.85682 | 5931 ft | 283 kts | 247° |
| 2026-05-04 20:38 | 69.57145 | 19.80502 | 5470 ft | 280 kts | 247° |
| 2026-05-04 20:39 | 69.56430 | 19.75326 | 5137 ft | 274 kts | 247° |
| 2026-05-04 20:39 | 69.55701 | 19.70094 | 5066 ft | 289 kts | 247° |
| 2026-05-04 20:39 | 69.55020 | 19.64571 | 4998 ft | 301 kts | 255° |
| 2026-05-04 20:39 | 69.54550 | 19.58543 | 5037 ft | 309 kts | 258° |
| 2026-05-04 20:40 | 69.54119 | 19.52350 | 5063 ft | 316 kts | 259° |
| 2026-05-04 20:40 | 69.53729 | 19.46231 | 5236 ft | 289 kts | 259° |
| 2026-05-04 20:40 | 69.53477 | 19.40990 | 5266 ft | 273 kts | 267° |
| 2026-05-04 20:40 | 69.53463 | 19.36888 | 5063 ft | 270 kts | 270° |
| 2026-05-04 20:41 | 69.53493 | 19.31514 | 4711 ft | 270 kts | 271° |
| 2026-05-04 20:41 | 69.53541 | 19.26277 | 4374 ft | 258 kts | 271° |
| 2026-05-04 20:41 | 69.53593 | 19.21363 | 4000 ft | 238 kts | 272° |
| 2026-05-04 20:41 | 69.53643 | 19.16607 | 3857 ft | 226 kts | 272° |
| 2026-05-04 20:42 | 69.53735 | 19.12243 | 3817 ft | 212 kts | 282° |
| 2026-05-04 20:42 | 69.54166 | 19.08221 | 3840 ft | 199 kts | 289° |
| 2026-05-04 20:42 | 69.54677 | 19.04760 | 3814 ft | 189 kts | 295° |
| 2026-05-04 20:42 | 69.55209 | 19.01303 | 3684 ft | 186 kts | 294° |
| 2026-05-04 20:43 | 69.55737 | 18.97874 | 3494 ft | 185 kts | 297° |
| 2026-05-04 20:43 | 69.56383 | 18.94581 | 3271 ft | 186 kts | 302° |
| 2026-05-04 20:43 | 69.57209 | 18.91819 | 3032 ft | 180 kts | 315° |
| 2026-05-04 20:43 | 69.58123 | 18.89351 | 2806 ft | 174 kts | 327° |
| 2026-05-04 20:44 | 69.59185 | 18.87935 | 2581 ft | 169 kts | 348° |
| 2026-05-04 20:44 | 69.60360 | 18.87360 | 2267 ft | 168 kts | 356° |
| 2026-05-04 20:44 | 69.61510 | 18.87447 | 1895 ft | 166 kts | 9° |
| 2026-05-04 20:44 | 69.62607 | 18.88127 | 1379 ft | 162 kts | 15° |
| 2026-05-04 20:45 | 69.63732 | 18.88970 | 926 ft | 168 kts | 14° |
| 2026-05-04 20:45 | 69.64979 | 18.89695 | 688 ft | 170 kts | 13° |
| 2026-05-04 20:45 | 69.66020 | 18.90411 | 404 ft | 146 kts | 17° |
| 2026-05-04 20:45 | 69.67034 | 18.91038 | 146 ft | 140 kts | 14° |
| 2026-05-04 20:46 | 69.67865 | 18.91600 | 38 ft | 110 kts | 12° |
| 2026-05-04 20:46 | 69.68431 | 18.91989 | 27 ft | 57 kts | 14° |
| 2026-05-04 20:46 | 69.68731 | 18.92111 | 20 ft | 26 kts | 334° |
| 2026-05-04 20:46 | 69.68774 | 18.91790 | 18 ft | 13 kts | 251° |
| 2026-05-04 20:47 | 69.68635 | 18.91626 | 19 ft | 32 kts | 194° |
| 2026-05-04 20:47 | 69.68431 | 18.91503 | 25 ft | 29 kts | 183° |
| 2026-05-04 20:47 | 69.68238 | 18.91437 | 28 ft | 26 kts | 191° |
| 2026-05-04 20:47 | 69.68089 | 18.91339 | 33 ft | 20 kts | 194° |
| 2026-05-04 20:48 | 69.67978 | 18.91260 | 33 ft | 12 kts | 196° |
| 2026-05-04 20:48 | 69.67925 | 18.91172 | 33 ft | 7 kts | 242° |
| 2026-05-04 20:48 | 69.67918 | 18.91097 | 33 ft | 2 kts | 271° |
| 2026-05-04 20:48 | 69.67921 | 18.91008 | 33 ft | 5 kts | 282° |
| 2026-05-04 20:49 | 69.67928 | 18.90929 | 33 ft | 0 kts | 283° |
| 2026-05-04 20:49 | 69.67928 | 18.90925 | 33 ft | 0 kts | 283° |
| 2026-05-04 20:57 | 69.67928 | 18.90926 | 33 ft | 0 kts | 283° |
| 2026-05-04 21:05 | 69.67928 | 18.90927 | 33 ft | 0 kts | 283° |
| 2026-05-04 21:11 | 69.67926 | 18.90946 | 33 ft | 4 kts | 283° |
| 2026-05-04 21:11 | 69.67920 | 18.91022 | 33 ft | 4 kts | 283° |
| 2026-05-04 21:11 | 69.67914 | 18.91096 | 33 ft | 3 kts | 283° |
| 2026-05-04 21:12 | 69.67913 | 18.91106 | 33 ft | 1 kts | 283° |
| 2026-05-04 21:14 | 69.67913 | 18.91079 | 33 ft | 7 kts | 260° |
| 2026-05-04 21:14 | 69.67848 | 18.91039 | 33 ft | 17 kts | 179° |
| 2026-05-04 21:14 | 69.67729 | 18.91049 | 33 ft | 12 kts | 179° |
| 2026-05-04 21:14 | 69.67639 | 18.91125 | 33 ft | 17 kts | 121° |
| 2026-05-04 21:15 | 69.67669 | 18.91462 | 39 ft | 23 kts | 17° |
| 2026-05-04 21:15 | 69.67696 | 18.91480 | 38 ft | 1 kts | 9° |
| 2026-05-04 21:15 | 69.67750 | 18.91509 | 38 ft | 29 kts | 13° |
| 2026-05-04 21:15 | 69.68174 | 18.91800 | 29 ft | 94 kts | 11° |
| 2026-05-04 21:16 | 69.68969 | 18.92309 | 34 ft | 139 kts | 15° |
| 2026-05-04 21:16 | 69.69959 | 18.93050 | 389 ft | 147 kts | 18° |
| 2026-05-04 21:16 | 69.70950 | 18.93946 | 830 ft | 162 kts | 20° |
| 2026-05-04 21:16 | 69.72118 | 18.95082 | 1229 ft | 182 kts | 20° |